createdAt,value
2022-11-30T00:01:22.587Z,13.23
2022-11-30T00:03:54.954Z,11.83
2022-11-30T00:06:25.237Z,12.13
2022-11-30T00:08:56.859Z,10.13
2022-11-30T00:11:25.764Z,11.30
2022-11-30T00:13:53.412Z,10.27
2022-11-30T00:16:21.202Z,9.83
2022-11-30T00:18:48.242Z,11.97
2022-11-30T00:21:15.678Z,8.57
2022-11-30T00:23:44.029Z,9.70
2022-11-30T00:26:14.067Z,14.27
2022-11-30T00:28:42.193Z,10.68
2022-11-30T00:31:12.206Z,9.07
2022-11-30T00:33:40.009Z,11.32
2022-11-30T00:36:18.719Z,12.27
2022-11-30T00:38:46.291Z,12.47
2022-11-30T00:41:14.097Z,12.90
2022-11-30T00:43:41.524Z,14.27
2022-11-30T00:46:09.522Z,11.70
2022-11-30T00:48:37.700Z,11.70
2022-11-30T00:51:05.745Z,12.27
2022-11-30T00:53:32.897Z,12.37
2022-11-30T00:55:59.958Z,9.57
2022-11-30T00:58:26.974Z,11.17
2022-11-30T01:00:54.106Z,13.90
2022-11-30T01:03:21.172Z,11.17
2022-11-30T01:05:48.274Z,14.00
2022-11-30T01:08:15.494Z,10.63
2022-11-30T01:10:44.246Z,12.00
2022-11-30T01:13:14.587Z,9.33
2022-11-30T01:15:44.206Z,12.40
2022-11-30T01:18:11.877Z,11.77
2022-11-30T01:20:45.055Z,16.80
2022-11-30T01:23:12.035Z,12.70
2022-11-30T01:25:39.817Z,13.03
2022-11-30T01:28:09.220Z,11.43
2022-11-30T01:30:58.192Z,13.83
2022-11-30T01:33:25.855Z,10.10
2022-11-30T01:36:03.390Z,11.37
2022-11-30T01:38:38.913Z,12.50
2022-11-30T01:41:08.366Z,11.23
2022-11-30T01:43:53.927Z,11.90
2022-11-30T01:46:28.873Z,11.30
2022-11-30T01:49:18.316Z,7.60
2022-11-30T01:52:07.889Z,9.73
2022-11-30T01:54:43.140Z,8.23
2022-11-30T01:57:20.901Z,15.60
2022-11-30T01:59:50.054Z,11.07
2022-11-30T02:02:26.486Z,8.53
2022-11-30T02:04:53.662Z,10.47
2022-11-30T02:07:21.199Z,10.33
2022-11-30T02:09:48.247Z,11.50
2022-11-30T02:12:44.049Z,10.40
2022-11-30T02:15:21.949Z,13.57
2022-11-30T02:18:11.575Z,11.30
2022-11-30T02:20:55.275Z,9.97
2022-11-30T02:23:48.610Z,6.53
2022-11-30T02:26:30.979Z,11.93
2022-11-30T02:29:27.348Z,9.43
2022-11-30T02:32:05.171Z,11.10
2022-11-30T02:34:35.179Z,12.80
2022-11-30T02:37:03.844Z,11.98
2022-11-30T02:39:30.867Z,11.50
2022-11-30T02:41:57.848Z,10.77
2022-11-30T02:44:25.561Z,14.30
2022-11-30T02:47:10.907Z,16.13
2022-11-30T02:49:46.223Z,6.37
2022-11-30T02:52:15.257Z,9.33
2022-11-30T02:54:42.572Z,11.40
2022-11-30T02:57:09.757Z,6.93
2022-11-30T02:59:36.910Z,8.07
2022-11-30T03:02:03.923Z,8.17
2022-11-30T03:04:30.889Z,8.73
2022-11-30T03:06:57.937Z,9.03
2022-11-30T03:09:26.109Z,7.43
2022-11-30T03:11:53.094Z,5.97
2022-11-30T03:14:20.091Z,10.10
2022-11-30T03:16:47.139Z,4.83
2022-11-30T03:19:14.374Z,8.47
2022-11-30T03:21:41.388Z,5.70
2022-11-30T03:24:08.465Z,10.33
2022-11-30T03:26:35.492Z,9.70
2022-11-30T03:29:02.607Z,10.97
2022-11-30T03:31:29.851Z,9.20
2022-11-30T03:33:56.976Z,8.23
2022-11-30T03:36:24.214Z,8.87
2022-11-30T03:38:51.265Z,9.43
2022-11-30T03:41:19.234Z,11.27
2022-11-30T03:43:47.330Z,9.73
2022-11-30T03:46:15.230Z,9.27
2022-11-30T03:48:44.840Z,12.23
2022-11-30T03:51:12.766Z,14.83
2022-11-30T03:53:40.691Z,6.30
2022-11-30T03:56:10.266Z,8.13
2022-11-30T03:58:37.523Z,9.97
2022-11-30T04:01:14.175Z,7.53
2022-11-30T04:03:41.614Z,11.40
2022-11-30T04:06:12.634Z,6.93
2022-11-30T04:08:39.788Z,12.53
2022-11-30T04:11:07.381Z,10.20
2022-11-30T04:13:36.109Z,11.33
2022-11-30T04:16:03.585Z,15.53
2022-11-30T04:18:31.981Z,15.37
2022-11-30T04:21:00.611Z,11.73
2022-11-30T04:23:34.470Z,10.60
2022-11-30T04:26:03.914Z,9.17
2022-11-30T04:28:31.000Z,10.87
2022-11-30T04:31:00.446Z,9.70
2022-11-30T04:33:30.764Z,7.70
2022-11-30T04:36:01.592Z,10.15
2022-11-30T04:38:29.871Z,8.80
2022-11-30T04:40:56.936Z,7.60
2022-11-30T04:43:24.138Z,8.63
2022-11-30T04:45:51.759Z,6.67
2022-11-30T04:48:19.414Z,8.97
2022-11-30T04:50:46.468Z,9.87
2022-11-30T04:53:13.534Z,13.10
2022-11-30T04:55:40.516Z,10.17
2022-11-30T04:58:08.234Z,12.53
2022-11-30T05:00:36.089Z,6.13
2022-11-30T05:03:03.207Z,9.27
2022-11-30T05:05:30.289Z,11.43
2022-11-30T05:07:59.500Z,10.70
2022-11-30T05:10:28.218Z,10.53
2022-11-30T05:12:55.645Z,10.77
2022-11-30T05:15:22.947Z,9.63
2022-11-30T05:17:52.423Z,10.10
2022-11-30T05:20:19.466Z,7.63
2022-11-30T05:22:49.001Z,10.93
2022-11-30T05:25:16.142Z,7.03
2022-11-30T05:27:43.120Z,9.73
2022-11-30T05:30:10.547Z,9.47
2022-11-30T05:32:37.806Z,6.40
2022-11-30T05:35:05.119Z,16.17
2022-11-30T05:37:32.328Z,5.63
2022-11-30T05:39:59.309Z,9.10
2022-11-30T05:42:26.923Z,10.63
2022-11-30T05:44:54.044Z,9.73
2022-11-30T05:47:21.026Z,9.00
2022-11-30T05:49:47.987Z,9.23
2022-11-30T05:52:14.969Z,4.83
2022-11-30T05:54:41.908Z,9.17
2022-11-30T05:57:08.884Z,11.20
2022-11-30T05:59:35.832Z,8.80
2022-11-30T06:02:02.918Z,13.37
2022-11-30T06:04:30.049Z,8.67
2022-11-30T06:06:57.290Z,10.53
2022-11-30T06:09:24.716Z,9.47
2022-11-30T06:11:51.772Z,10.10
2022-11-30T06:14:18.773Z,9.47
2022-11-30T06:16:46.295Z,9.50
2022-11-30T06:19:13.317Z,9.47
2022-11-30T06:21:40.311Z,11.50
2022-11-30T06:24:08.572Z,11.67
2022-11-30T06:26:35.556Z,8.50
2022-11-30T06:29:02.626Z,10.43
2022-11-30T06:31:31.449Z,11.70
2022-11-30T06:33:59.317Z,9.37
2022-11-30T06:36:28.951Z,9.70
2022-11-30T06:39:01.162Z,9.17
2022-11-30T06:41:28.309Z,7.43
2022-11-30T06:43:55.314Z,6.77
2022-11-30T06:46:22.499Z,10.30
2022-11-30T06:48:50.975Z,8.20
2022-11-30T06:51:18.391Z,14.27
2022-11-30T06:53:45.911Z,11.87
2022-11-30T06:56:13.116Z,15.00
2022-11-30T06:58:40.981Z,13.67
2022-11-30T07:01:10.192Z,13.30
2022-11-30T07:03:37.436Z,13.10
2022-11-30T07:06:14.660Z,12.93
2022-11-30T07:08:42.538Z,12.27
2022-11-30T07:11:10.873Z,11.47
2022-11-30T07:13:38.480Z,10.97
2022-11-30T07:16:07.483Z,7.13
2022-11-30T07:18:35.355Z,11.23
2022-11-30T07:21:04.280Z,12.97
2022-11-30T07:23:55.815Z,13.03
2022-11-30T07:26:24.385Z,13.73
2022-11-30T07:28:58.444Z,10.90
2022-11-30T07:31:29.811Z,13.40
2022-11-30T07:33:58.788Z,12.67
2022-11-30T07:36:27.383Z,13.10
2022-11-30T07:38:54.449Z,14.60
2022-11-30T07:41:22.073Z,12.97
2022-11-30T07:43:49.049Z,16.97
2022-11-30T07:46:16.908Z,13.80
2022-11-30T07:48:45.455Z,15.93
2022-11-30T07:51:14.988Z,14.37
2022-11-30T07:53:41.980Z,16.63
2022-11-30T07:56:15.321Z,18.07
2022-11-30T07:58:42.960Z,14.93
2022-11-30T08:01:22.493Z,10.77
2022-11-30T08:03:51.114Z,13.90
2022-11-30T08:06:21.065Z,16.57
2022-11-30T08:08:50.657Z,14.63
2022-11-30T08:11:23.553Z,17.17
2022-11-30T08:13:51.194Z,16.97
2022-11-30T08:16:21.391Z,16.30
2022-11-30T08:18:49.083Z,14.70
2022-11-30T08:21:18.589Z,17.13
2022-11-30T08:23:48.895Z,16.20
2022-11-30T08:26:19.044Z,17.50
2022-11-30T08:28:47.590Z,21.35
2022-11-30T08:31:35.674Z,17.17
2022-11-30T08:34:06.516Z,18.37
2022-11-30T08:36:34.281Z,17.80
2022-11-30T08:39:04.386Z,16.73
2022-11-30T08:41:31.949Z,16.13
2022-11-30T08:43:59.126Z,17.00
2022-11-30T08:49:22.680Z,17.87
2022-11-30T08:54:40.192Z,13.37
2022-11-30T08:57:07.191Z,13.53
2022-11-30T08:59:34.243Z,14.37
2022-11-30T09:02:01.245Z,11.40
2022-11-30T09:04:28.281Z,14.97
2022-11-30T09:06:59.182Z,14.90
2022-11-30T09:09:26.513Z,14.63
2022-11-30T09:11:53.482Z,14.40
2022-11-30T09:14:20.556Z,14.93
2022-11-30T09:16:47.826Z,18.53
2022-11-30T09:19:16.151Z,14.13
2022-11-30T09:21:48.084Z,15.50
2022-11-30T09:24:18.145Z,14.40
2022-11-30T09:26:45.180Z,14.13
2022-11-30T09:29:12.218Z,15.77
2022-11-30T09:31:40.671Z,14.23
2022-11-30T09:34:07.731Z,14.50
2022-11-30T09:36:36.634Z,16.83
2022-11-30T09:39:04.335Z,16.53
2022-11-30T09:41:55.908Z,13.30
2022-11-30T09:44:34.967Z,13.67
2022-11-30T09:47:07.826Z,14.60
2022-11-30T09:49:37.713Z,11.23
2022-11-30T09:52:10.252Z,19.27
2022-11-30T09:54:40.042Z,22.23
2022-11-30T09:57:22.074Z,14.60
2022-11-30T09:59:55.992Z,19.33
2022-11-30T10:02:28.426Z,17.90
2022-11-30T10:04:55.969Z,9.83
2022-11-30T10:07:41.546Z,14.77
2022-11-30T10:10:32.188Z,17.77
2022-11-30T10:13:12.745Z,13.20
2022-11-30T10:15:57.778Z,15.00
2022-11-30T10:19:02.285Z,22.73
2022-11-30T10:22:01.583Z,12.40
2022-11-30T10:25:06.015Z,19.07
2022-11-30T10:27:54.943Z,10.83
2022-11-30T10:30:29.466Z,15.20
2022-11-30T10:33:02.431Z,17.80
2022-11-30T10:35:38.902Z,17.73
2022-11-30T10:38:17.069Z,15.30
2022-11-30T10:41:05.055Z,16.07
2022-11-30T10:43:41.821Z,13.07
2022-11-30T10:46:28.711Z,16.67
2022-11-30T10:49:12.493Z,17.17
2022-11-30T10:51:43.384Z,17.90
2022-11-30T10:54:20.334Z,14.70
2022-11-30T10:56:47.692Z,15.90
2022-11-30T10:59:47.317Z,18.67
2022-11-30T11:02:34.838Z,18.47
2022-11-30T11:05:25.315Z,18.20
2022-11-30T11:07:55.406Z,16.30
2022-11-30T11:10:42.959Z,13.23
2022-11-30T11:13:37.349Z,16.00
2022-11-30T11:16:06.272Z,17.50
2022-11-30T11:18:34.616Z,18.27
2022-11-30T11:21:07.401Z,20.00
2022-11-30T11:23:41.267Z,16.07
2022-11-30T11:26:18.108Z,17.93
2022-11-30T11:28:48.286Z,16.20
2022-11-30T11:31:35.765Z,17.90
2022-11-30T11:34:04.242Z,19.97
2022-11-30T11:36:33.276Z,17.30
2022-11-30T11:39:01.283Z,17.20
2022-11-30T11:41:37.629Z,17.63
2022-11-30T11:44:10.612Z,14.70
2022-11-30T11:47:02.449Z,17.60
2022-11-30T11:49:38.822Z,16.70
2022-11-30T11:52:07.125Z,18.33
2022-11-30T11:55:11.349Z,20.80
2022-11-30T11:57:56.601Z,17.20
2022-11-30T12:00:26.711Z,13.73
2022-11-30T12:03:18.547Z,15.45
2022-11-30T12:05:53.698Z,15.83
2022-11-30T12:09:06.585Z,14.77
2022-11-30T12:11:42.765Z,14.03
2022-11-30T12:14:15.552Z,15.10
2022-11-30T12:16:54.430Z,15.70
2022-11-30T12:19:44.450Z,16.03
2022-11-30T12:22:34.373Z,13.10
2022-11-30T12:25:29.348Z,14.20
2022-11-30T12:28:32.848Z,12.37
2022-11-30T12:31:12.761Z,14.37
2022-11-30T12:33:57.560Z,14.03
2022-11-30T12:36:38.871Z,15.93
2022-11-30T12:39:10.159Z,10.77
2022-11-30T12:41:37.134Z,10.47
2022-11-30T12:44:28.948Z,12.27
2022-11-30T12:47:26.780Z,10.67
2022-11-30T12:50:15.537Z,15.20
2022-11-30T12:52:59.986Z,15.60
2022-11-30T12:55:46.157Z,10.87
2022-11-30T12:58:45.507Z,13.13
2022-11-30T13:01:30.866Z,16.77
2022-11-30T13:04:25.524Z,13.30
2022-11-30T13:06:56.068Z,12.53
2022-11-30T13:09:35.100Z,14.05
2022-11-30T13:12:16.474Z,14.30
2022-11-30T13:14:44.029Z,12.17
2022-11-30T13:17:18.670Z,15.83
2022-11-30T13:20:07.705Z,13.10
2022-11-30T13:22:50.773Z,13.30
2022-11-30T13:26:08.660Z,15.63
2022-11-30T13:28:42.648Z,12.73
2022-11-30T13:31:24.531Z,14.63
2022-11-30T13:33:54.534Z,13.27
2022-11-30T13:36:29.199Z,13.73
2022-11-30T13:39:14.528Z,13.43
2022-11-30T13:41:43.767Z,14.30
2022-11-30T13:44:43.254Z,14.53
2022-11-30T13:47:36.596Z,12.47
2022-11-30T13:50:15.350Z,15.03
2022-11-30T13:53:00.793Z,13.63
2022-11-30T13:55:42.739Z,14.20
2022-11-30T13:58:11.591Z,14.97
2022-11-30T14:00:38.833Z,14.53
2022-11-30T14:06:28.898Z,14.43
2022-11-30T14:08:56.152Z,14.52
2022-11-30T14:11:39.243Z,13.50
2022-11-30T14:14:45.825Z,13.03
2022-11-30T14:17:24.162Z,12.97
2022-11-30T14:19:57.019Z,15.13
2022-11-30T14:22:26.392Z,13.80
2022-11-30T14:24:54.506Z,14.20
2022-11-30T14:27:25.832Z,15.63
2022-11-30T14:29:59.506Z,15.77
2022-11-30T14:32:35.491Z,14.97
2022-11-30T14:35:08.319Z,15.77
2022-11-30T14:37:51.427Z,17.53
2022-11-30T14:40:21.919Z,16.30
2022-11-30T14:42:54.536Z,16.03
2022-11-30T14:45:25.088Z,16.53
2022-11-30T14:48:03.758Z,15.38
2022-11-30T14:50:31.239Z,16.03
2022-11-30T14:53:18.530Z,15.90
2022-11-30T14:55:56.730Z,15.77
2022-11-30T14:58:32.737Z,14.40
2022-11-30T15:01:00.032Z,15.00
2022-11-30T15:03:33.558Z,15.23
2022-11-30T15:06:05.682Z,13.70
2022-11-30T15:08:39.097Z,15.87
2022-11-30T15:11:11.545Z,16.37
2022-11-30T15:13:43.938Z,15.67
2022-11-30T15:16:37.221Z,16.80
2022-11-30T15:19:23.337Z,16.20
2022-11-30T15:21:51.810Z,16.40
2022-11-30T15:24:19.350Z,16.77
2022-11-30T15:27:08.633Z,15.50
2022-11-30T15:32:23.134Z,14.60
2022-11-30T15:34:57.500Z,15.70
2022-11-30T15:37:42.684Z,17.50
2022-11-30T15:40:14.527Z,16.37
2022-11-30T15:42:42.145Z,16.13
2022-11-30T15:45:24.421Z,17.13
2022-11-30T15:47:53.259Z,16.50
2022-11-30T15:50:26.335Z,16.80
2022-11-30T15:53:14.785Z,16.10
2022-11-30T15:55:47.049Z,17.33
2022-11-30T15:58:37.819Z,17.23
2022-11-30T16:01:05.657Z,15.95
2022-11-30T16:03:34.880Z,15.20
2022-11-30T16:06:07.187Z,18.00
2022-11-30T16:08:34.698Z,17.20
2022-11-30T16:11:07.440Z,16.90
2022-11-30T16:13:35.144Z,16.27
2022-11-30T16:16:02.495Z,14.93
2022-11-30T16:18:29.566Z,16.43
2022-11-30T16:21:01.820Z,15.87
2022-11-30T16:23:29.827Z,16.87
2022-11-30T16:25:57.022Z,16.63
2022-11-30T16:28:24.141Z,15.20
2022-11-30T16:30:53.765Z,17.60
2022-11-30T16:33:23.125Z,14.80
2022-11-30T16:36:02.747Z,15.90
2022-11-30T16:38:31.033Z,15.87
2022-11-30T16:41:17.117Z,15.80
2022-11-30T16:43:45.793Z,14.63
2022-11-30T16:46:15.400Z,14.23
2022-11-30T16:48:44.249Z,15.23
2022-11-30T16:51:32.255Z,14.40
2022-11-30T16:53:59.348Z,16.17
2022-11-30T16:56:26.939Z,15.77
2022-11-30T16:58:54.910Z,16.33
2022-11-30T17:01:33.163Z,15.43
2022-11-30T17:04:12.588Z,14.90
2022-11-30T17:06:40.042Z,16.70
2022-11-30T17:09:12.149Z,14.80
2022-11-30T17:11:39.480Z,16.47
2022-11-30T17:14:07.723Z,15.37
2022-11-30T17:16:34.974Z,15.47
2022-11-30T17:19:02.038Z,17.53
2022-11-30T17:21:34.715Z,14.83
2022-11-30T17:24:01.856Z,16.30
2022-11-30T17:26:29.240Z,16.00
2022-11-30T17:28:56.326Z,16.23
2022-11-30T17:31:23.731Z,18.37
2022-11-30T17:33:51.387Z,16.37
2022-11-30T17:36:23.504Z,16.27
2022-11-30T17:38:50.764Z,16.43
2022-11-30T17:41:20.119Z,18.63
2022-11-30T17:43:48.895Z,16.70
2022-11-30T17:46:18.359Z,16.13
2022-11-30T17:48:46.425Z,16.90
2022-11-30T17:51:14.102Z,16.67
2022-11-30T17:53:42.468Z,17.27
2022-11-30T17:56:15.062Z,16.93
2022-11-30T17:58:44.593Z,17.83
2022-11-30T18:01:23.501Z,16.80
2022-11-30T18:03:51.894Z,16.57
2022-11-30T18:06:19.545Z,17.73
2022-11-30T18:08:46.797Z,17.23
2022-11-30T18:11:20.584Z,16.47
2022-11-30T18:13:50.132Z,16.13
2022-11-30T18:16:29.275Z,15.03
2022-11-30T18:19:01.262Z,15.47
2022-11-30T18:21:32.215Z,18.13
2022-11-30T18:26:27.267Z,15.57
2022-11-30T18:28:59.293Z,16.43
2022-11-30T18:31:28.409Z,14.50
2022-11-30T18:33:57.450Z,14.77
2022-11-30T18:36:25.031Z,14.83
2022-11-30T18:38:52.180Z,14.30
2022-11-30T18:41:19.722Z,12.23
2022-11-30T18:43:46.945Z,15.27
2022-11-30T18:46:14.463Z,10.87
2022-11-30T18:48:42.053Z,14.83
2022-11-30T18:51:14.096Z,15.67
2022-11-30T18:53:42.124Z,14.60
2022-11-30T18:56:20.809Z,16.10
2022-11-30T18:58:48.871Z,15.90
2022-11-30T19:01:20.108Z,15.07
2022-11-30T19:03:55.848Z,15.03
2022-11-30T19:06:25.395Z,16.47
2022-11-30T19:08:52.545Z,14.60
2022-11-30T19:11:20.686Z,14.50
2022-11-30T19:13:47.801Z,13.97
2022-11-30T19:16:17.143Z,13.27
2022-11-30T19:18:47.325Z,12.60
2022-11-30T19:21:19.157Z,14.52
2022-11-30T19:23:46.971Z,16.03
2022-11-30T19:26:14.871Z,13.20
2022-11-30T19:28:43.834Z,13.40
2022-11-30T19:31:13.385Z,12.53
2022-11-30T19:33:43.248Z,13.93
2022-11-30T19:36:16.999Z,14.57
2022-11-30T19:38:44.280Z,12.63
2022-11-30T19:41:17.872Z,13.67
2022-11-30T19:43:52.995Z,13.83
2022-11-30T19:46:22.272Z,11.57
2022-11-30T19:48:49.397Z,13.80
2022-11-30T19:51:23.090Z,14.03
2022-11-30T19:53:57.715Z,13.50
2022-11-30T19:56:25.648Z,13.87
2022-11-30T19:58:52.871Z,12.53
2022-11-30T20:01:25.593Z,13.80
2022-11-30T20:03:55.189Z,15.03
2022-11-30T20:06:26.602Z,14.50
2022-11-30T20:08:53.764Z,13.60
2022-11-30T20:11:20.858Z,13.43
2022-11-30T20:13:48.108Z,13.20
2022-11-30T20:16:18.205Z,12.17
2022-11-30T20:18:50.763Z,13.30
2022-11-30T20:21:26.242Z,14.67
2022-11-30T20:23:54.911Z,16.10
2022-11-30T20:26:27.390Z,15.33
2022-11-30T20:28:54.426Z,13.97
2022-11-30T20:31:23.257Z,13.03
2022-11-30T20:33:51.103Z,13.97
2022-11-30T20:36:19.662Z,14.20
2022-11-30T20:38:47.449Z,15.17
2022-11-30T20:41:18.466Z,14.77
2022-11-30T20:46:24.654Z,14.37
2022-11-30T20:48:53.172Z,15.20
2022-11-30T20:51:30.558Z,13.70
2022-11-30T20:53:59.986Z,14.57
2022-11-30T20:56:27.027Z,16.10
2022-11-30T20:58:54.076Z,14.87
2022-11-30T21:01:22.419Z,14.87
2022-11-30T21:03:49.951Z,15.43
2022-11-30T21:06:17.448Z,14.97
2022-11-30T21:08:44.863Z,16.27
2022-11-30T21:11:14.507Z,15.53
2022-11-30T21:13:44.052Z,15.30
2022-11-30T21:16:12.145Z,16.93
2022-11-30T21:18:41.459Z,13.50
2022-11-30T21:21:12.248Z,16.03
2022-11-30T21:23:39.633Z,15.63
2022-11-30T21:26:09.120Z,14.30
2022-11-30T21:28:38.288Z,16.13
2022-11-30T21:31:06.055Z,14.97
2022-11-30T21:33:33.133Z,16.17
2022-11-30T21:36:00.221Z,15.87
2022-11-30T21:38:27.216Z,16.67
2022-11-30T21:41:00.078Z,16.60
2022-11-30T21:43:29.039Z,15.70
2022-11-30T21:46:03.662Z,15.17
2022-11-30T21:48:33.112Z,15.10
2022-11-30T21:51:20.829Z,15.93
2022-11-30T21:53:50.744Z,14.97
2022-11-30T21:56:24.013Z,18.63
2022-11-30T21:58:51.778Z,15.07
2022-11-30T22:01:22.020Z,15.73
2022-11-30T22:03:49.428Z,18.58
2022-11-30T22:06:18.866Z,17.17
2022-11-30T22:08:46.283Z,14.17
2022-11-30T22:11:16.322Z,14.33
2022-11-30T22:13:44.658Z,15.75
2022-11-30T22:16:14.371Z,15.80
2022-11-30T22:18:42.827Z,15.93
2022-11-30T22:21:15.402Z,17.03
2022-11-30T22:23:49.189Z,17.10
2022-11-30T22:26:23.311Z,16.13
2022-11-30T22:29:05.372Z,16.83
2022-11-30T22:31:38.908Z,16.13
2022-11-30T22:34:06.799Z,16.07
2022-11-30T22:36:35.623Z,16.13
2022-11-30T22:39:06.549Z,15.53
2022-11-30T22:44:00.920Z,14.13
2022-11-30T22:46:30.330Z,15.43
2022-11-30T22:49:02.788Z,16.10
2022-11-30T22:51:31.220Z,14.83
2022-11-30T22:53:59.079Z,14.90
2022-11-30T22:56:28.823Z,15.10
2022-11-30T22:59:00.029Z,15.77
2022-11-30T23:01:35.485Z,15.43
2022-11-30T23:04:09.383Z,15.17
2022-11-30T23:06:37.990Z,14.70
2022-11-30T23:09:07.513Z,14.90
2022-11-30T23:11:34.901Z,16.23
2022-11-30T23:14:06.376Z,15.47
2022-11-30T23:16:33.679Z,14.40
2022-11-30T23:19:00.837Z,15.03
2022-11-30T23:21:38.961Z,16.17
2022-11-30T23:24:09.678Z,14.60
2022-11-30T23:26:38.357Z,15.53
2022-11-30T23:29:08.395Z,16.20
2022-11-30T23:31:38.142Z,16.33
2022-11-30T23:34:20.055Z,16.57
2022-11-30T23:36:48.740Z,15.57
2022-11-30T23:39:17.638Z,17.37
2022-11-30T23:41:45.172Z,15.63
2022-11-30T23:44:12.825Z,15.77
2022-11-30T23:46:40.136Z,14.70
2022-11-30T23:49:08.255Z,15.70
2022-11-30T23:51:35.655Z,15.03
2022-11-30T23:54:02.905Z,14.97
2022-11-30T23:56:29.936Z,17.33
2022-11-30T23:58:57.041Z,14.50
